Holland, Arkansas
Current Conditions -  °F | °C
As of 12:58 AM on Monday 22 Dec 2014 (Local Time) from KLRF Reporting Station
Overcast Overcast  
Wind Chill: 46°   Ceiling: 3100
Heat Index: 46°   Visibility: 10mi
Dew Point: 39°   Wind: 3mph
Humidity: 76%   Direction: 70°ENE
Pressure: 29.86"   Gusts: NA
Location:  35.0719°N, 92.1713°W
Report Text: KLRF 220658Z AUTO 07003KT 10SM OVC031 08/04 A2986 RMK AO2 SLP115
Loading
Personal Weather Stations






























Interactive Weather Map New forecast layout! Learn more

10-Day Weather Forecast

Advertisements
Track Severe Weather on mobile